Time;durP1;ratioP1;P1;durP2;ratioP2;P2;SDS_P1;SDS_P2;PMS_P1;PMS_P2;Temp;Humidity;BMP_temperature;BMP_pressure;BME280_temperature;BME280_humidity;BME280_pressure;Samples;Min_cycle;Max_cycle;Signal;HPM_P1;HPM_P2
2022/11/18 00:00:48;;;;;;;16.53;11.00;;;;;;;10.90;100.00;93476.78;5050692;28;20243;-59
2022/11/18 00:03:14;;;;;;;15.57;10.50;;;;;;;10.69;100.00;93448.50;5050746;28;20185;-61
2022/11/18 00:05:39;;;;;;;21.40;11.23;;;;;;;10.73;100.00;93447.25;5050774;28;20210;-63
2022/11/18 00:08:05;;;;;;;17.97;11.20;;;;;;;10.92;100.00;93469.78;5051064;28;20231;-61
2022/11/18 00:10:30;;;;;;;17.97;10.23;;;;;;;10.86;100.00;93480.59;5051056;28;20628;-63
2022/11/18 00:15:40;;;;;;;16.07;10.50;;;;;;;10.58;100.00;93446.31;5051031;28;20220;-62
2022/11/18 00:18:05;;;;;;;17.10;10.67;;;;;;;10.38;100.00;93447.59;5050878;28;20272;-62
2022/11/18 00:20:33;;;;;;;14.97;10.33;;;;;;;10.31;100.00;93442.34;5032681;28;20279;-64
2022/11/18 00:22:58;;;;;;;16.50;11.20;;;;;;;10.43;100.00;93447.88;5050736;28;20193;-63
2022/11/18 00:25:25;;;;;;;15.80;11.20;;;;;;;10.54;100.00;93445.03;5050761;28;20220;-59
2022/11/18 00:27:50;;;;;;;19.97;11.27;;;;;;;10.51;100.00;93437.72;5050945;28;20196;-62
2022/11/18 00:30:16;;;;;;;18.77;10.93;;;;;;;10.64;100.00;93440.59;5049368;28;20213;-63
2022/11/18 00:32:42;;;;;;;14.20;10.33;;;;;;;10.70;100.00;93471.25;5050551;28;20554;-59
2022/11/18 00:35:08;;;;;;;15.57;10.67;;;;;;;10.71;100.00;93451.69;5050609;28;20290;-62
2022/11/18 00:37:33;;;;;;;17.77;10.53;;;;;;;10.70;100.00;93452.66;5050751;28;20185;-60
2022/11/18 00:39:59;;;;;;;18.83;11.13;;;;;;;10.68;100.00;93465.53;5050646;28;20710;-62
2022/11/18 00:45:08;;;;;;;18.50;9.83;;;;;;;10.43;100.00;93430.09;5050424;28;20212;-61
2022/11/18 00:47:34;;;;;;;16.00;10.47;;;;;;;10.40;100.00;93433.78;5050375;28;20572;-63
2022/11/18 00:49:59;;;;;;;22.33;11.37;;;;;;;10.41;100.00;93434.56;5050298;28;20244;-59
2022/11/18 00:52:24;;;;;;;16.00;10.73;;;;;;;10.47;100.00;93441.53;5050357;28;20231;-61
2022/11/18 00:54:50;;;;;;;15.67;10.73;;;;;;;10.50;100.00;93441.22;5050377;28;20224;-62
2022/11/18 00:57:15;;;;;;;12.97;10.07;;;;;;;10.48;100.00;93454.09;5050636;28;20190;-62
2022/11/18 00:59:40;;;;;;;14.03;9.90;;;;;;;10.39;100.00;93441.53;5050421;28;20216;-62
2022/11/18 01:02:06;;;;;;;15.93;10.43;;;;;;;10.42;100.00;93446.31;5050359;28;20701;-62
2022/11/18 01:04:31;;;;;;;15.63;10.07;;;;;;;10.59;100.00;93455.50;5050163;28;20703;-61
2022/11/18 01:06:57;;;;;;;15.17;10.33;;;;;;;10.62;100.00;93475.53;5050273;28;20189;-59
2022/11/18 01:09:22;;;;;;;16.07;11.00;;;;;;;10.42;100.00;93441.22;5032268;28;20643;-58
2022/11/18 01:14:31;;;;;;;14.23;9.73;;;;;;;10.28;100.00;93452.03;5050300;28;20229;-61
2022/11/18 01:16:57;;;;;;;18.83;10.23;;;;;;;10.23;100.00;93442.34;5049941;28;20186;-61
2022/11/18 01:19:23;;;;;;;14.77;10.33;;;;;;;10.12;100.00;93435.81;5049945;28;20292;-62
2022/11/18 01:21:49;;;;;;;13.73;9.70;;;;;;;10.14;100.00;93441.53;5050166;28;20276;-63
2022/11/18 01:24:15;;;;;;;15.23;11.67;;;;;;;10.01;100.00;93438.63;5032722;28;20213;-63
2022/11/18 01:26:41;;;;;;;18.80;11.00;;;;;;;10.06;100.00;93433.06;5053512;28;20185;-61
2022/11/18 01:29:07;;;;;;;13.40;9.70;;;;;;;10.18;100.00;93457.22;5053328;28;20220;-63
2022/11/18 01:31:33;;;;;;;17.63;10.47;;;;;;;9.72;100.00;93443.31;5035505;28;20185;-62
2022/11/18 01:33:58;;;;;;;14.97;10.50;;;;;;;10.03;100.00;93446.88;5053056;28;20209;-58
2022/11/18 01:36:26;;;;;;;22.13;11.00;;;;;;;10.06;100.00;93461.00;5053230;28;20715;-61
2022/11/18 01:38:53;;;;;;;14.40;10.53;;;;;;;9.92;100.00;93452.25;5052835;28;20251;-59
2022/11/18 01:41:22;;;;;;;15.43;10.63;;;;;;;9.86;100.00;93445.25;5053178;28;20189;-63
2022/11/18 01:43:55;;;;;;;16.27;10.67;;;;;;;9.88;100.00;93445.09;5052937;28;20196;-64
2022/11/18 01:46:23;;;;;;;20.37;11.03;;;;;;;9.84;100.00;93485.22;5053064;28;20186;-63
2022/11/18 01:49:10;;;;;;;17.27;11.07;;;;;;;9.31;100.00;93434.00;5052783;28;20181;-59
2022/11/18 01:51:45;;;;;;;18.37;11.43;;;;;;;9.54;100.00;93439.28;5034945;28;20610;-62
2022/11/18 01:54:18;;;;;;;18.17;11.13;;;;;;;9.40;100.00;93442.41;5052842;28;20274;-58
2022/11/18 01:56:49;;;;;;;18.30;11.40;;;;;;;8.95;100.00;93435.06;5053285;28;20216;-61
2022/11/18 01:59:19;;;;;;;14.70;11.17;;;;;;;8.92;100.00;93432.84;5052852;28;20664;-61
2022/11/18 02:01:45;;;;;;;16.10;11.17;;;;;;;9.06;100.00;93438.16;5052818;28;20677;-59
2022/11/18 02:04:11;;;;;;;16.93;11.80;;;;;;;9.30;100.00;93442.53;5034848;28;20304;-60
2022/11/18 02:06:37;;;;;;;20.47;12.50;;;;;;;9.13;100.00;93440.88;5052571;28;20235;-59
2022/11/18 02:09:03;;;;;;;16.37;11.73;;;;;;;8.91;100.00;93434.56;5052637;28;20205;-60
2022/11/18 02:14:13;;;;;;;27.33;16.63;;;;;;;8.95;100.00;93435.06;5052926;28;20224;-62
2022/11/18 02:17:04;;;;;;;34.83;20.63;;;;;;;8.90;100.00;93434.72;5052422;28;20189;-62
2022/11/18 02:19:45;;;;;;;31.77;21.00;;;;;;;8.65;100.00;93428.69;5052602;28;20245;-63
2022/11/18 02:22:40;;;;;;;34.07;20.10;;;;;;;8.89;100.00;93428.03;5052833;28;20518;-62
2022/11/18 02:25:30;;;;;;;41.80;22.30;;;;;;;8.88;100.00;93436.59;5053091;28;20236;-62
2022/11/18 02:28:14;;;;;;;31.17;19.00;;;;;;;8.97;100.00;93440.75;5053151;28;20671;-63
2022/11/18 02:31:11;;;;;;;40.77;23.03;;;;;;;9.09;100.00;93447.19;5052653;28;20658;-59
2022/11/18 02:33:58;;;;;;;36.83;21.57;;;;;;;9.04;100.00;93436.69;5044296;28;20663;-63
2022/11/18 02:36:33;;;;;;;53.77;22.07;;;;;;;9.24;100.00;93438.06;5051792;28;20627;-61
2022/11/18 02:39:06;;;;;;;36.30;21.23;;;;;;;9.10;100.00;93439.44;5033963;28;20662;-61
2022/11/18 02:41:35;;;;;;;58.83;20.90;;;;;;;9.08;100.00;93438.78;5050831;28;20205;-64
2022/11/18 02:44:10;;;;;;;32.43;20.70;;;;;;;8.95;100.00;93432.50;5052231;28;20221;-61
2022/11/18 02:46:38;;;;;;;36.53;20.93;;;;;;;8.66;100.00;93429.50;5052091;28;20658;-59
2022/11/18 02:49:14;;;;;;;35.93;19.10;;;;;;;8.63;100.00;93401.94;5051961;28;20224;-62
2022/11/18 02:51:43;;;;;;;34.47;19.27;;;;;;;9.05;100.00;93433.22;5052050;28;20197;-62
2022/11/18 02:54:11;;;;;;;32.47;20.47;;;;;;;8.90;100.00;93429.66;5051909;28;20654;-60
2022/11/18 02:56:37;;;;;;;34.47;19.93;;;;;;;9.17;100.00;93432.03;5050540;28;20193;-61
2022/11/18 02:59:03;;;;;;;39.73;19.57;;;;;;;9.20;100.00;93426.63;5052154;28;20263;-60
2022/11/18 03:01:32;;;;;;;40.00;20.07;;;;;;;9.11;100.00;93425.03;5051800;28;20690;-62
2022/11/18 03:03:58;;;;;;;41.00;19.73;;;;;;;8.76;100.00;93435.28;5051520;28;20221;-61
2022/11/18 03:06:23;;;;;;;29.57;18.77;;;;;;;9.01;100.00;93424.31;5051718;28;20227;-61
2022/11/18 03:08:58;;;;;;;29.27;18.17;;;;;;;8.91;100.00;93447.22;5050094;28;20193;-59
2022/11/18 03:11:28;;;;;;;32.90;19.20;;;;;;;8.52;100.00;93447.78;5051711;28;20193;-64
2022/11/18 03:13:53;;;;;;;28.63;17.73;;;;;;;8.71;100.00;93432.38;5051218;28;20213;-60
2022/11/18 03:16:25;;;;;;;27.83;17.23;;;;;;;8.74;100.00;93445.56;5051739;28;20280;-60
2022/11/18 03:19:23;;;;;;;29.63;17.90;;;;;;;8.03;100.00;93444.81;5050077;28;20667;-61
2022/11/18 03:22:16;;;;;;;28.77;17.77;;;;;;;8.46;100.00;93441.56;5050868;28;20205;-60
2022/11/18 03:25:00;;;;;;;31.50;19.13;;;;;;;8.44;100.00;93435.84;5047059;28;20221;-59
2022/11/18 03:27:43;;;;;;;32.03;17.93;;;;;;;8.66;100.00;93432.03;5051430;28;20278;-62
2022/11/18 03:30:14;;;;;;;29.47;17.67;;;;;;;8.53;100.00;93431.63;5051821;28;20205;-61
2022/11/18 03:32:47;;;;;;;24.87;16.17;;;;;;;8.78;100.00;93430.84;5051128;28;20682;-61
2022/11/18 03:35:19;;;;;;;26.07;16.53;;;;;;;8.91;100.00;93431.22;5051038;28;20225;-59
2022/11/18 03:37:49;;;;;;;31.13;17.53;;;;;;;8.67;100.00;93409.09;5051358;28;20646;-61
2022/11/18 03:40:20;;;;;;;28.33;16.90;;;;;;;9.00;100.00;93435.41;5049831;28;20201;-61
2022/11/18 03:42:52;;;;;;;24.53;15.97;;;;;;;8.79;100.00;93415.50;5033252;28;20722;-58
2022/11/18 03:45:43;;;;;;;28.37;16.63;;;;;;;8.82;100.00;93432.94;5051312;28;20659;-61
2022/11/18 03:48:14;;;;;;;25.93;17.03;;;;;;;8.78;100.00;93425.78;5049582;28;20544;-62
2022/11/18 03:51:08;;;;;;;29.07;17.97;;;;;;;8.92;100.00;93422.69;5050797;28;20201;-59
2022/11/18 03:53:39;;;;;;;27.50;18.57;;;;;;;8.73;100.00;93417.81;5049377;28;20233;-61
2022/11/18 03:56:19;;;;;;;30.40;18.37;;;;;;;8.93;100.00;93421.72;5050847;28;20195;-63
2022/11/18 03:59:03;;;;;;;43.33;22.13;;;;;;;8.86;100.00;93419.03;5051009;28;20209;-60
2022/11/18 04:01:56;;;;;;;40.70;20.40;;;;;;;8.83;100.00;93414.25;5032982;28;20188;-62
2022/11/18 04:04:23;;;;;;;51.00;22.87;;;;;;;8.54;100.00;93406.16;5050748;28;20282;-62
2022/11/18 04:07:07;;;;;;;55.83;22.57;;;;;;;8.88;100.00;93412.06;5050735;28;20186;-61
2022/11/18 04:09:40;;;;;;;62.30;23.07;;;;;;;8.92;100.00;93415.91;5050761;28;20691;-62
2022/11/18 04:12:09;;;;;;;62.57;22.93;;;;;;;8.71;100.00;93410.38;5050745;28;20180;-61
2022/11/18 04:14:41;;;;;;;54.33;23.23;;;;;;;8.59;100.00;93406.50;5050657;28;20280;-64
2022/11/18 04:17:15;;;;;;;61.47;23.30;;;;;;;8.87;100.00;93422.34;5050731;28;20205;-64
2022/11/18 04:19:41;;;;;;;115.97;22.93;;;;;;;8.77;100.00;93430.03;5050823;28;20231;-63
2022/11/18 04:22:08;;;;;;;67.60;21.10;;;;;;;8.70;100.00;93413.06;5050589;28;20272;-61
2022/11/18 04:24:34;;;;;;;101.60;21.17;;;;;;;8.74;100.00;93434.63;5050814;28;20229;-61
2022/11/18 04:27:01;;;;;;;116.50;23.07;;;;;;;8.48;100.00;93418.63;5050590;28;20193;-62
2022/11/18 04:29:27;;;;;;;51.50;19.63;;;;;;;8.62;100.00;93411.28;5050534;28;20224;-61
2022/11/18 04:31:52;;;;;;;80.90;21.23;;;;;;;8.19;100.00;93436.56;5050725;28;20186;-62
2022/11/18 04:34:17;;;;;;;58.70;19.83;;;;;;;8.35;100.00;93427.41;5050377;28;20229;-62
2022/11/18 04:36:43;;;;;;;48.93;19.87;;;;;;;8.20;100.00;93430.56;5050504;28;20189;-63
2022/11/18 04:39:08;;;;;;;51.50;19.43;;;;;;;7.83;100.00;93430.72;5050460;28;20206;-61
2022/11/18 04:44:32;;;;;;;57.43;20.17;;;;;;;7.77;100.00;93433.81;5037214;28;20719;-58
2022/11/18 04:47:01;;;;;;;76.10;20.13;;;;;;;8.03;100.00;93444.81;5050475;28;20194;-61
2022/11/18 04:49:27;;;;;;;40.13;18.93;;;;;;;7.99;100.00;93440.97;5050498;28;20296;-63
2022/11/18 04:51:54;;;;;;;57.00;17.93;;;;;;;8.03;100.00;93427.09;5048985;28;20223;-58
2022/11/18 04:54:20;;;;;;;97.77;21.23;;;;;;;7.58;100.00;93464.25;5050382;28;20324;-61
2022/11/18 04:56:46;;;;;;;57.27;20.00;;;;;;;7.85;100.00;93438.94;5050335;28;20575;-59
2022/11/18 04:59:13;;;;;;;60.10;18.23;;;;;;;7.85;100.00;93450.78;5050872;28;20579;-60
2022/11/18 05:01:39;;;;;;;136.70;21.00;;;;;;;7.81;100.00;93445.22;5053440;28;20192;-59
2022/11/18 05:04:05;;;;;;;106.60;20.80;;;;;;;7.68;100.00;93442.25;5053622;28;20713;-59
2022/11/18 05:06:32;;;;;;;49.73;19.80;;;;;;;7.62;100.00;93440.28;5053549;28;20204;-63
2022/11/18 05:08:58;;;;;;;31.30;18.23;;;;;;;7.90;100.00;93436.78;5053453;28;20178;-58
2022/11/18 05:14:09;;;;;;;62.97;19.87;;;;;;;8.25;100.00;93439.34;5053591;28;20801;-58
2022/11/18 05:16:35;;;;;;;36.30;17.03;;;;;;;8.29;100.00;93444.91;5053503;28;20190;-63
2022/11/18 05:19:01;;;;;;;43.40;17.00;;;;;;;8.54;100.00;93443.34;5053263;28;20678;-62
2022/11/18 05:21:27;;;;;;;40.03;18.30;;;;;;;8.41;100.00;93452.13;5053513;28;20264;-61
2022/11/18 05:23:52;;;;;;;43.90;18.37;;;;;;;8.43;100.00;93452.78;5053100;28;20220;-60
2022/11/18 05:26:18;;;;;;;86.23;20.60;;;;;;;8.62;100.00;93464.47;5053473;28;20602;-61
2022/11/18 05:28:43;;;;;;;69.53;20.53;;;;;;;8.34;100.00;93448.56;5053102;28;20181;-61
2022/11/18 05:31:12;;;;;;;144.77;23.17;;;;;;;8.05;100.00;93442.13;5053508;28;20202;-62
2022/11/18 05:33:37;;;;;;;50.83;18.30;;;;;;;8.27;100.00;93451.84;5052978;28;20299;-61
2022/11/18 05:36:09;;;;;;;47.77;20.37;;;;;;;8.53;100.00;93460.28;5053275;28;20707;-59
2022/11/18 05:38:35;;;;;;;39.53;18.80;;;;;;;8.67;100.00;93449.63;5051943;28;20194;-61
2022/11/18 05:41:01;;;;;;;93.37;19.80;;;;;;;8.75;100.00;93459.00;5052892;28;20283;-59
2022/11/18 05:43:27;;;;;;;42.50;17.30;;;;;;;8.73;100.00;93454.09;5052912;28;20197;-61
2022/11/18 05:45:52;;;;;;;83.53;18.23;;;;;;;8.69;100.00;93459.59;5053346;28;20214;-59
2022/11/18 05:48:18;;;;;;;29.03;16.00;;;;;;;8.50;100.00;93457.25;5035062;28;20223;-60
2022/11/18 05:50:46;;;;;;;30.83;17.57;;;;;;;8.58;100.00;93439.59;5053105;28;20240;-64
2022/11/18 05:53:12;;;;;;;60.23;20.67;;;;;;;8.60;100.00;93443.56;5052962;28;20190;-63
2022/11/18 05:55:50;;;;;;;28.80;16.40;;;;;;;8.79;100.00;93456.03;5052667;28;20246;-64
2022/11/18 05:58:16;;;;;;;28.30;17.10;;;;;;;8.88;100.00;93447.53;5052874;28;20193;-63
2022/11/18 06:00:43;;;;;;;31.47;17.40;;;;;;;9.04;100.00;93451.91;5052590;28;20224;-62
2022/11/18 06:03:16;;;;;;;61.80;20.60;;;;;;;8.70;100.00;93439.19;5052892;28;20186;-63
2022/11/18 06:05:41;;;;;;;35.30;18.13;;;;;;;8.53;100.00;93444.28;5052719;28;20205;-60
2022/11/18 06:08:09;;;;;;;35.83;18.73;;;;;;;8.94;100.00;93452.03;5052833;28;20193;-58
2022/11/18 06:10:37;;;;;;;70.77;20.43;;;;;;;8.86;100.00;93451.97;5052324;28;20248;-62
2022/11/18 06:13:09;;;;;;;35.57;18.37;;;;;;;8.99;100.00;93454.06;5052375;28;20196;-62
2022/11/18 06:15:39;;;;;;;39.53;19.20;;;;;;;9.10;100.00;93447.03;5052932;28;20221;-64
2022/11/18 06:18:14;;;;;;;32.67;18.20;;;;;;;9.17;100.00;93452.31;5052863;28;20631;-63
2022/11/18 06:20:40;;;;;;;44.20;19.33;;;;;;;9.00;100.00;93432.88;5052599;28;20304;-61
2022/11/18 06:23:06;;;;;;;56.60;19.77;;;;;;;9.16;100.00;93415.22;5052307;28;20574;-61
2022/11/18 06:25:32;;;;;;;127.60;23.57;;;;;;;8.58;100.00;93460.66;5052057;28;20241;-62
2022/11/18 06:28:01;;;;;;;113.40;22.77;;;;;;;8.42;100.00;93441.03;5052319;28;20185;-59
2022/11/18 06:30:27;;;;;;;41.30;19.60;;;;;;;8.86;100.00;93421.56;5034957;28;20260;-59
2022/11/18 06:32:52;;;;;;;70.87;20.70;;;;;;;8.77;100.00;93446.97;5052251;28;20264;-62
2022/11/18 06:35:17;;;;;;;98.37;23.00;;;;;;;8.93;100.00;93435.22;5052475;28;20225;-59
2022/11/18 06:37:43;;;;;;;48.47;20.37;;;;;;;9.16;100.00;93432.97;5052156;28;20182;-57
2022/11/18 06:40:09;;;;;;;38.97;19.27;;;;;;;9.26;100.00;93428.56;5051767;28;20208;-58
2022/11/18 06:45:18;;;;;;;49.17;17.13;;;;;;;9.77;100.00;93433.50;5052507;28;20580;-63
2022/11/18 06:47:44;;;;;;;46.43;15.20;;;;;;;9.76;100.00;93424.28;5052196;28;20650;-61
2022/11/18 06:50:09;;;;;;;71.17;16.33;;;;;;;9.58;100.00;93440.56;5051836;28;20285;-62
2022/11/18 06:52:34;;;;;;;46.43;14.90;;;;;;;9.83;100.00;93425.28;5051935;28;20189;-60
2022/11/18 06:55:00;;;;;;;49.10;14.20;;;;;;;10.18;100.00;93426.75;5051912;28;20213;-63
2022/11/18 06:57:25;;;;;;;55.60;13.27;;;;;;;10.13;100.00;93445.03;5051841;28;20186;-61
2022/11/18 06:59:51;;;;;;;120.03;15.67;;;;;;;9.73;100.00;93450.00;5051891;28;20209;-61
2022/11/18 07:02:17;;;;;;;141.53;17.60;;;;;;;9.62;100.00;93442.66;5051798;28;20197;-61
2022/11/18 07:04:49;;;;;;;45.67;15.37;;;;;;;9.75;100.00;93437.13;5052178;28;20262;-61
2022/11/18 07:07:15;;;;;;;60.63;15.00;;;;;;;9.81;100.00;93446.66;5051511;28;20197;-61
2022/11/18 07:09:40;;;;;;;150.53;22.23;;;;;;;9.18;100.00;93453.88;5051512;28;20221;-62
2022/11/18 07:12:05;;;;;;;75.77;20.20;;;;;;;9.49;100.00;93431.34;5033851;28;20181;-60
2022/11/18 07:14:31;;;;;;;44.90;20.57;;;;;;;9.88;100.00;93427.31;5051283;28;20213;-64
2022/11/18 07:16:56;;;;;;;84.03;21.40;;;;;;;9.79;100.00;93439.22;5049981;28;20225;-64
2022/11/18 07:19:22;;;;;;;144.87;23.13;;;;;;;9.56;100.00;93438.19;5051483;28;20220;-61
2022/11/18 07:21:47;;;;;;;47.47;20.27;;;;;;;9.68;100.00;93419.19;5051437;28;20187;-63
2022/11/18 07:24:14;;;;;;;87.70;18.80;;;;;;;9.86;100.00;93427.47;5051395;28;20561;-65
2022/11/18 07:26:40;;;;;;;77.67;20.63;;;;;;;9.70;100.00;93419.03;5051457;28;20185;-59
2022/11/18 07:29:06;;;;;;;66.63;19.73;;;;;;;9.75;100.00;93417.63;5051206;28;20309;-61
2022/11/18 07:31:34;;;;;;;85.17;19.40;;;;;;;9.50;100.00;93399.94;5051749;28;20298;-58
2022/11/18 07:34:00;;;;;;;47.10;18.87;;;;;;;9.65;100.00;93403.50;5050999;28;20236;-62
2022/11/18 07:36:27;;;;;;;50.70;17.90;;;;;;;10.05;100.00;93409.44;5050937;28;20181;-61
2022/11/18 07:38:53;;;;;;;45.80;16.97;;;;;;;10.05;100.00;93414.53;5050861;28;20244;-61
2022/11/18 07:41:25;;;;;;;48.90;18.70;;;;;;;9.58;100.00;93394.91;5051164;28;20221;-60
2022/11/18 07:43:52;;;;;;;40.60;18.50;;;;;;;9.88;100.00;93402.75;5051173;28;20181;-59
2022/11/18 07:46:18;;;;;;;55.23;19.10;;;;;;;9.87;100.00;93403.72;5050975;28;20178;-62
2022/11/18 07:48:45;;;;;;;60.03;20.33;;;;;;;9.82;100.00;93405.91;5050834;28;20218;-63
2022/11/18 07:51:12;;;;;;;45.57;19.33;;;;;;;10.14;100.00;93402.63;5050972;28;20225;-62
2022/11/18 07:53:37;;;;;;;36.53;17.87;;;;;;;10.26;100.00;93398.81;5050978;28;20189;-61
2022/11/18 07:56:03;;;;;;;52.67;20.30;;;;;;;9.94;100.00;93391.16;5050579;28;20221;-61
2022/11/18 07:58:29;;;;;;;42.47;17.70;;;;;;;9.81;100.00;93404.34;5033218;28;20186;-61
2022/11/18 08:00:54;;;;;;;53.80;18.17;;;;;;;10.01;100.00;93427.69;5051040;28;20583;-62
2022/11/18 08:03:24;;;;;;;36.03;18.00;;;;;;;10.35;100.00;93435.97;5032842;28;20659;-61
2022/11/18 08:05:49;;;;;;;47.47;18.80;;;;;;;10.11;100.00;93419.00;5051073;28;20220;-65
2022/11/18 08:08:15;;;;;;;41.93;19.00;;;;;;;9.76;100.00;93423.50;5049358;28;20193;-61
2022/11/18 08:10:40;;;;;;;38.43;18.83;;;;;;;9.62;100.00;93427.44;5050939;28;20760;-61
2022/11/18 08:13:06;;;;;;;58.03;18.67;;;;;;;10.08;100.00;93449.72;5050560;28;20589;-61
2022/11/18 08:15:31;;;;;;;45.53;21.40;;;;;;;9.97;100.00;93477.16;5050572;28;20217;-61
2022/11/18 08:17:57;;;;;;;73.63;22.57;;;;;;;9.38;100.00;93452.72;5050668;28;20193;-62
2022/11/18 08:20:26;;;;;;;61.87;19.70;;;;;;;9.26;100.00;93441.25;5050627;28;20304;-60
2022/11/18 08:22:51;;;;;;;51.97;20.40;;;;;;;9.51;100.00;93429.47;5050402;28;20216;-63
2022/11/18 08:25:16;;;;;;;45.13;19.30;;;;;;;9.66;100.00;93433.78;5050802;28;20599;-63
2022/11/18 08:27:42;;;;;;;62.60;21.83;;;;;;;9.83;100.00;93429.53;5050553;28;20190;-65
2022/11/18 08:30:08;;;;;;;61.87;21.43;;;;;;;9.82;100.00;93427.94;5032695;28;20214;-64
2022/11/18 08:32:34;;;;;;;46.13;21.00;;;;;;;10.36;100.00;93429.97;5050238;28;20217;-64
2022/11/18 08:34:59;;;;;;;38.83;19.93;;;;;;;10.48;100.00;93410.13;5052290;28;20313;-64
2022/11/18 08:37:25;;;;;;;44.80;22.40;;;;;;;10.39;100.00;93400.91;5053983;28;20661;-62
2022/11/18 08:39:50;;;;;;;42.27;20.53;;;;;;;10.71;100.00;93421.19;5054058;28;20215;-62
2022/11/18 08:42:15;;;;;;;54.13;23.73;;;;;;;10.40;100.00;93394.88;5054112;28;20268;-63
2022/11/18 08:44:41;;;;;;;47.60;23.47;;;;;;;10.83;100.00;93394.47;5053591;28;20218;-63
2022/11/18 08:47:06;;;;;;;55.53;25.53;;;;;;;10.93;100.00;93397.63;5053714;28;20190;-64
2022/11/18 08:49:32;;;;;;;53.67;24.13;;;;;;;11.17;100.00;93379.75;5053575;28;20621;-64
2022/11/18 08:51:57;;;;;;;48.33;25.40;;;;;;;11.46;100.00;93396.97;5053708;28;20181;-63
2022/11/18 08:54:22;;;;;;;48.87;25.93;;;;;;;11.19;100.00;93375.31;5053754;28;20574;-63
2022/11/18 08:56:49;;;;;;;46.27;24.63;;;;;;;10.62;100.00;93349.28;5053696;28;20223;-65
2022/11/18 08:59:15;;;;;;;49.43;23.23;;;;;;;11.15;100.00;93345.31;5053228;28;20621;-64
2022/11/18 09:01:42;;;;;;;47.30;23.43;;;;;;;11.15;100.00;93348.63;5053347;28;20209;-63
2022/11/18 09:04:09;;;;;;;50.13;24.93;;;;;;;10.58;100.00;93339.59;5035416;28;20213;-61
2022/11/18 09:06:37;;;;;;;52.80;25.87;;;;;;;10.67;100.00;93341.16;5052110;28;20188;-61
2022/11/18 09:09:03;;;;;;;51.23;25.33;;;;;;;10.91;100.00;93336.00;5053318;28;20220;-62
2022/11/18 09:11:28;;;;;;;55.40;25.07;;;;;;;11.15;100.00;93337.66;5052171;28;20281;-62
2022/11/18 09:13:56;;;;;;;48.23;23.27;;;;;;;11.34;100.00;93340.59;5053367;28;20182;-61
2022/11/18 09:16:23;;;;;;;51.50;25.33;;;;;;;10.93;100.00;93308.66;5053284;28;20186;-61
2022/11/18 09:18:50;;;;;;;54.50;24.47;;;;;;;11.27;100.00;93339.66;5052896;28;20213;-61
2022/11/18 09:21:16;;;;;;;43.90;23.40;;;;;;;11.12;100.00;93338.78;5053172;28;20215;-61
2022/11/18 09:23:42;;;;;;;58.97;25.70;;;;;;;10.65;100.00;93320.19;5053128;28;20177;-62
2022/11/18 09:26:10;;;;;;;50.40;25.03;;;;;;;10.77;100.00;93313.78;5053324;28;20201;-60
2022/11/18 09:28:35;;;;;;;52.73;27.17;;;;;;;10.68;100.00;93315.59;5053211;28;20243;-61
2022/11/18 09:31:10;;;;;;;53.50;27.07;;;;;;;10.35;100.00;93328.50;5052977;28;20213;-61
2022/11/18 09:33:36;;;;;;;50.73;27.60;;;;;;;10.80;100.00;93337.16;5053176;28;20185;-60
2022/11/18 09:36:04;;;;;;;60.63;26.93;;;;;;;10.38;100.00;93323.13;5053281;28;20249;-63
2022/11/18 09:38:30;;;;;;;102.40;29.33;;;;;;;10.56;100.00;93336.41;5053147;28;20197;-62
2022/11/18 09:41:14;;;;;;;76.20;28.93;;;;;;;9.98;100.00;93306.94;5053230;28;20239;-61
2022/11/18 09:43:58;;;;;;;55.47;27.10;;;;;;;10.27;100.00;93305.66;5052986;28;20193;-61
2022/11/18 09:46:35;;;;;;;68.13;28.30;;;;;;;10.15;100.00;93302.66;5051583;28;20204;-61
2022/11/18 09:49:13;;;;;;;61.33;29.30;;;;;;;10.47;100.00;93291.66;5052611;28;20296;-62
2022/11/18 09:51:45;;;;;;;59.33;28.00;;;;;;;10.99;100.00;93268.13;5052762;28;20660;-62
2022/11/18 09:54:23;;;;;;;54.37;26.03;;;;;;;11.84;100.00;93283.38;5052586;28;20236;-62
2022/11/18 09:56:51;;;;;;;46.93;24.17;;;;;;;12.44;100.00;93297.63;5052638;28;20185;-61
2022/11/18 09:59:18;;;;;;;49.97;26.43;;;;;;;12.56;100.00;93308.19;5052527;28;20282;-62
2022/11/18 10:01:45;;;;;;;51.30;26.70;;;;;;;13.07;100.00;93337.16;5052632;28;20255;-62
2022/11/18 10:04:19;;;;;;;48.73;24.17;;;;;;;13.43;100.00;93327.78;5052566;28;20220;-62
2022/11/18 10:06:46;;;;;;;42.10;23.47;;;;;;;13.92;100.00;93355.97;5052615;28;20189;-62
2022/11/18 10:09:38;;;;;;;38.90;22.80;;;;;;;14.10;100.00;93367.38;5052630;28;20248;-61
2022/11/18 10:12:11;;;;;;;41.27;22.17;;;;;;;13.48;100.00;93362.03;5052757;28;20652;-61
2022/11/18 10:14:46;;;;;;;44.10;24.00;;;;;;;13.38;100.00;93348.75;5052631;28;20241;-61
2022/11/18 10:17:14;;;;;;;43.40;23.50;;;;;;;13.29;100.00;93308.97;5052735;28;20188;-63
2022/11/18 10:20:02;;;;;;;44.93;24.23;;;;;;;13.23;100.00;93302.03;5052447;28;20218;-61
2022/11/18 10:22:46;;;;;;;47.93;24.47;;;;;;;13.69;100.00;93330.63;5052416;28;20235;-64
2022/11/18 10:25:17;;;;;;;49.13;26.60;;;;;;;13.77;100.00;93348.41;5052625;28;20675;-61
2022/11/18 10:27:45;;;;;;;45.67;24.60;;;;;;;13.44;100.00;93279.09;5052349;28;20194;-62
2022/11/18 10:30:22;;;;;;;45.13;22.50;;;;;;;14.01;100.00;93317.38;5052597;28;20263;-62
2022/11/18 10:32:57;;;;;;;53.53;25.45;;;;;;;14.43;100.00;93334.47;5052378;28;20264;-60
2022/11/18 10:35:35;;;;;;;40.23;23.17;;;;;;;14.74;100.00;93345.13;5050838;28;20601;-62
2022/11/18 10:38:13;;;;;;;40.08;23.17;;;;;;;14.23;100.00;93348.81;5052493;28;20194;-62
2022/11/18 10:40:56;;;;;;;38.10;20.60;;;;;;;14.46;100.00;93375.03;5052747;28;20271;-61
2022/11/18 10:43:47;;;;;;;38.55;20.65;;;;;;;14.11;100.00;93294.06;5052281;28;20181;-61
2022/11/18 10:46:16;;;;;;;49.15;26.00;;;;;;;14.15;100.00;93272.28;5051992;28;20691;-60
2022/11/18 10:48:41;;;;;;;52.13;28.30;;;;;;;14.02;100.00;93264.50;5051941;28;20181;-61
2022/11/18 10:51:25;;;;;;;56.77;30.00;;;;;;;13.55;100.00;93241.31;5052171;28;20678;-61
2022/11/18 10:53:50;;;;;;;55.43;29.90;;;;;;;13.56;100.00;93222.44;5052011;28;20192;-61
2022/11/18 10:56:16;;;;;;;55.57;29.90;;;;;;;13.57;100.00;93222.28;5051929;28;20193;-62
2022/11/18 10:58:44;;;;;;;55.22;28.58;;;;;;;13.85;100.00;93299.75;5051462;28;20192;-59
2022/11/18 11:01:20;;;;;;;54.10;27.58;;;;;;;13.59;100.00;93232.31;5051819;28;20202;-64
2022/11/18 11:04:18;;;;;;;54.50;28.50;;;;;;;13.87;100.00;93244.16;5051604;28;20641;-61
2022/11/18 11:06:44;;;;;;;57.73;30.87;;;;;;;13.42;100.00;93239.41;5051870;28;20197;-64
2022/11/18 11:09:12;;;;;;;61.25;32.65;;;;;;;13.59;100.00;93228.00;5051785;28;20260;-63
2022/11/18 11:11:44;;;;;;;57.47;30.07;;;;;;;13.81;100.00;93238.97;5052187;28;20585;-64
2022/11/18 11:14:18;;;;;;;60.13;30.35;;;;;;;13.81;100.00;93272.19;5051484;28;20216;-61
2022/11/18 11:17:19;;;;;;;51.75;28.55;;;;;;;13.86;100.00;93257.88;5050519;28;20568;-61
2022/11/18 11:20:06;;;;;;;36.27;22.10;;;;;;;14.11;100.00;93306.84;5049339;28;20255;-59
2022/11/18 11:22:32;;;;;;;49.03;25.70;;;;;;;13.74;100.00;93301.97;5051498;28;20182;-61
2022/11/18 11:24:58;;;;;;;58.77;31.43;;;;;;;13.29;100.00;93216.31;5051790;28;20224;-63
2022/11/18 11:27:48;;;;;;;59.13;30.60;;;;;;;13.72;100.00;93240.88;5051577;28;20663;-59
2022/11/18 11:30:23;;;;;;;59.07;31.20;;;;;;;13.69;100.00;93220.03;5051929;28;20311;-59
2022/11/18 11:33:18;;;;;;;56.20;31.30;;;;;;;13.44;100.00;93177.00;5051633;28;20185;-61
2022/11/18 11:36:06;;;;;;;66.63;32.97;;;;;;;13.72;100.00;93211.97;5051810;28;20221;-63
2022/11/18 11:38:48;;;;;;;48.15;28.77;;;;;;;13.73;100.00;93224.59;5051363;28;20197;-63
2022/11/18 11:41:24;;;;;;;49.92;30.15;;;;;;;13.13;100.00;93162.97;5051507;28;20200;-61
2022/11/18 11:43:52;;;;;;;52.73;28.47;;;;;;;13.38;100.00;93180.28;5051082;28;20272;-60
2022/11/18 11:47:45;;;;;;;48.97;27.57;;;;;;;13.29;100.00;93171.16;5050107;28;20658;-63